sensor_id;sensor_type;location;lat;lon;timestamp;pressure;altitude;pressure_sealevel;temperature;humidity
26112;BME280;13829;48.990;8.346;2022-08-19T00:00:38;100017.44;;;21.00;100.00
26112;BME280;13829;48.990;8.346;2022-08-19T00:03:06;100006.81;;;20.99;100.00
26112;BME280;13829;48.990;8.346;2022-08-19T00:05:34;100014.84;;;20.99;100.00
26112;BME280;13829;48.990;8.346;2022-08-19T00:08:01;100021.78;;;21.03;100.00
26112;BME280;13829;48.990;8.346;2022-08-19T00:10:30;100022.72;;;21.02;100.00
26112;BME280;13829;48.990;8.346;2022-08-19T00:12:57;100021.91;;;21.00;100.00
26112;BME280;13829;48.990;8.346;2022-08-19T00:15:24;100021.03;;;20.99;100.00
26112;BME280;13829;48.990;8.346;2022-08-19T00:17:51;100021.91;;;21.00;100.00
26112;BME280;13829;48.990;8.346;2022-08-19T00:20:21;100019.19;;;21.01;100.00
26112;BME280;13829;48.990;8.346;2022-08-19T00:22:48;100022.88;;;20.99;100.00
26112;BME280;13829;48.990;8.346;2022-08-19T00:25:16;100015.78;;;20.98;100.00
26112;BME280;13829;48.990;8.346;2022-08-19T00:27:45;100013.69;;;21.05;100.00
26112;BME280;13829;48.990;8.346;2022-08-19T00:30:14;100012.09;;;21.00;100.00
26112;BME280;13829;48.990;8.346;2022-08-19T00:32:41;100026.25;;;21.02;100.00
26112;BME280;13829;48.990;8.346;2022-08-19T00:35:08;100024.22;;;21.08;100.00
26112;BME280;13829;48.990;8.346;2022-08-19T00:37:36;100042.13;;;21.26;100.00
26112;BME280;13829;48.990;8.346;2022-08-19T00:40:07;100027.91;;;21.26;100.00
26112;BME280;13829;48.990;8.346;2022-08-19T00:42:34;100036.13;;;21.21;100.00
26112;BME280;13829;48.990;8.346;2022-08-19T00:45:12;100038.13;;;21.16;100.00
26112;BME280;13829;48.990;8.346;2022-08-19T00:47:39;100031.69;;;21.20;100.00
26112;BME280;13829;48.990;8.346;2022-08-19T00:50:10;100020.34;;;21.15;100.00
26112;BME280;13829;48.990;8.346;2022-08-19T00:52:41;100007.91;;;21.14;100.00
26112;BME280;13829;48.990;8.346;2022-08-19T00:55:16;99992.16;;;21.08;100.00
26112;BME280;13829;48.990;8.346;2022-08-19T00:57:48;99988.53;;;21.09;100.00
26112;BME280;13829;48.990;8.346;2022-08-19T01:00:19;99986.66;;;21.11;100.00
26112;BME280;13829;48.990;8.346;2022-08-19T01:02:47;99990.00;;;21.16;100.00
26112;BME280;13829;48.990;8.346;2022-08-19T01:05:18;100007.09;;;21.32;100.00
26112;BME280;13829;48.990;8.346;2022-08-19T01:07:48;100011.34;;;21.37;100.00
26112;BME280;13829;48.990;8.346;2022-08-19T01:10:21;100014.91;;;21.37;100.00
26112;BME280;13829;48.990;8.346;2022-08-19T01:12:51;100029.50;;;21.30;100.00
26112;BME280;13829;48.990;8.346;2022-08-19T01:15:26;100026.88;;;21.28;100.00
26112;BME280;13829;48.990;8.346;2022-08-19T01:17:56;100021.38;;;21.31;100.00
26112;BME280;13829;48.990;8.346;2022-08-19T01:20:24;100021.19;;;21.36;100.00
26112;BME280;13829;48.990;8.346;2022-08-19T01:22:56;100017.22;;;21.45;100.00
26112;BME280;13829;48.990;8.346;2022-08-19T01:25:30;100006.78;;;21.39;100.00
26112;BME280;13829;48.990;8.346;2022-08-19T01:27:58;100003.19;;;21.40;100.00
26112;BME280;13829;48.990;8.346;2022-08-19T01:30:30;100016.94;;;21.32;100.00
26112;BME280;13829;48.990;8.346;2022-08-19T01:32:58;100017.50;;;21.39;100.00
26112;BME280;13829;48.990;8.346;2022-08-19T01:35:29;100015.59;;;21.41;100.00
26112;BME280;13829;48.990;8.346;2022-08-19T01:38:02;100021.91;;;21.40;100.00
26112;BME280;13829;48.990;8.346;2022-08-19T01:40:36;100018.59;;;21.34;100.00
26112;BME280;13829;48.990;8.346;2022-08-19T01:43:04;100027.63;;;21.32;100.00
26112;BME280;13829;48.990;8.346;2022-08-19T01:45:33;100030.06;;;21.37;100.00
26112;BME280;13829;48.990;8.346;2022-08-19T01:48:02;100021.66;;;21.25;100.00
26112;BME280;13829;48.990;8.346;2022-08-19T01:50:31;100018.25;;;21.22;100.00
26112;BME280;13829;48.990;8.346;2022-08-19T01:53:02;100021.66;;;21.25;100.00
26112;BME280;13829;48.990;8.346;2022-08-19T01:55:30;100015.53;;;21.23;100.00
26112;BME280;13829;48.990;8.346;2022-08-19T01:58:02;100019.06;;;21.24;100.00
26112;BME280;13829;48.990;8.346;2022-08-19T02:00:32;100012.72;;;21.26;100.00
26112;BME280;13829;48.990;8.346;2022-08-19T02:02:59;100014.72;;;21.21;100.00
26112;BME280;13829;48.990;8.346;2022-08-19T02:05:27;100010.59;;;21.14;100.00
26112;BME280;13829;48.990;8.346;2022-08-19T02:07:55;100006.97;;;21.15;100.00
26112;BME280;13829;48.990;8.346;2022-08-19T02:10:23;100005.91;;;21.19;100.00
26112;BME280;13829;48.990;8.346;2022-08-19T02:12:50;99999.97;;;21.12;100.00
26112;BME280;13829;48.990;8.346;2022-08-19T02:15:19;100009.94;;;21.09;100.00
26112;BME280;13829;48.990;8.346;2022-08-19T02:17:47;100012.31;;;21.15;100.00
26112;BME280;13829;48.990;8.346;2022-08-19T02:20:15;100019.50;;;21.14;100.00
26112;BME280;13829;48.990;8.346;2022-08-19T02:22:44;100016.91;;;21.13;100.00
26112;BME280;13829;48.990;8.346;2022-08-19T02:25:13;100016.22;;;21.08;100.00
26112;BME280;13829;48.990;8.346;2022-08-19T02:27:42;100019.97;;;21.04;100.00
26112;BME280;13829;48.990;8.346;2022-08-19T02:30:14;100014.78;;;21.00;100.00
26112;BME280;13829;48.990;8.346;2022-08-19T02:32:42;100012.22;;;20.97;100.00
26112;BME280;13829;48.990;8.346;2022-08-19T02:35:11;100017.44;;;21.00;100.00
26112;BME280;13829;48.990;8.346;2022-08-19T02:37:38;100004.84;;;21.02;100.00
26112;BME280;13829;48.990;8.346;2022-08-19T02:40:23;100011.94;;;21.04;100.00
26112;BME280;13829;48.990;8.346;2022-08-19T02:42:51;100009.53;;;20.97;100.00
26112;BME280;13829;48.990;8.346;2022-08-19T02:45:19;100005.13;;;20.96;100.00
26112;BME280;13829;48.990;8.346;2022-08-19T02:47:46;100002.53;;;20.95;100.00
26112;BME280;13829;48.990;8.346;2022-08-19T02:50:13;99999.78;;;20.96;100.00
26112;BME280;13829;48.990;8.346;2022-08-19T02:52:40;99998.06;;;20.95;100.00
26112;BME280;13829;48.990;8.346;2022-08-19T02:55:08;99996.06;;;21.00;100.00
26112;BME280;13829;48.990;8.346;2022-08-19T02:57:35;100004.00;;;21.02;100.00
26112;BME280;13829;48.990;8.346;2022-08-19T03:00:07;99998.81;;;20.99;100.00
26112;BME280;13829;48.990;8.346;2022-08-19T03:02:35;100001.66;;;20.94;100.00
26112;BME280;13829;48.990;8.346;2022-08-19T03:05:04;99993.50;;;20.97;100.00
26112;BME280;13829;48.990;8.346;2022-08-19T03:07:32;100003.13;;;21.01;100.00
26112;BME280;13829;48.990;8.346;2022-08-19T03:09:59;100006.88;;;20.97;100.00
26112;BME280;13829;48.990;8.346;2022-08-19T03:12:26;100021.03;;;20.99;100.00
26112;BME280;13829;48.990;8.346;2022-08-19T03:14:53;100021.72;;;21.05;100.00
26112;BME280;13829;48.990;8.346;2022-08-19T03:17:21;100020.19;;;20.99;100.00
26112;BME280;13829;48.990;8.346;2022-08-19T03:19:48;100019.31;;;20.98;100.00
26112;BME280;13829;48.990;8.346;2022-08-19T03:22:15;100014.88;;;20.97;100.00
26112;BME280;13829;48.990;8.346;2022-08-19T03:24:42;100013.16;;;20.96;100.00
26112;BME280;13829;48.990;8.346;2022-08-19T03:27:09;100016.78;;;20.95;100.00
26112;BME280;13829;48.990;8.346;2022-08-19T03:29:37;100026.50;;;20.96;100.00
26112;BME280;13829;48.990;8.346;2022-08-19T03:32:05;100016.63;;;20.98;100.00
26112;BME280;13829;48.990;8.346;2022-08-19T03:34:37;100021.16;;;20.96;100.00
26112;BME280;13829;48.990;8.346;2022-08-19T03:37:07;100019.19;;;21.01;100.00
26112;BME280;13829;48.990;8.346;2022-08-19T03:39:37;100026.97;;;21.06;100.00
26112;BME280;13829;48.990;8.346;2022-08-19T03:42:05;100026.47;;;20.98;100.00
26112;BME280;13829;48.990;8.346;2022-08-19T03:44:32;100037.50;;;20.90;100.00
26112;BME280;13829;48.990;8.346;2022-08-19T03:47:02;100028.53;;;20.91;100.00
26112;BME280;13829;48.990;8.346;2022-08-19T03:49:31;100037.63;;;20.87;100.00
26112;BME280;13829;48.990;8.346;2022-08-19T03:52:03;100034.47;;;20.77;100.00
26112;BME280;13829;48.990;8.346;2022-08-19T03:54:35;100036.28;;;20.77;100.00
26112;BME280;13829;48.990;8.346;2022-08-19T03:57:04;100033.53;;;20.78;100.00
26112;BME280;13829;48.990;8.346;2022-08-19T03:59:33;100038.22;;;20.73;100.00
26112;BME280;13829;48.990;8.346;2022-08-19T04:02:06;100026.91;;;20.66;100.00
26112;BME280;13829;48.990;8.346;2022-08-19T04:04:35;100031.31;;;20.67;100.00
26112;BME280;13829;48.990;8.346;2022-08-19T04:07:04;100024.84;;;20.73;100.00
26112;BME280;13829;48.990;8.346;2022-08-19T04:09:33;100030.28;;;20.72;100.00
26112;BME280;13829;48.990;8.346;2022-08-19T04:12:04;100032.25;;;20.66;100.00
26112;BME280;13829;48.990;8.346;2022-08-19T04:14:33;100034.91;;;20.66;100.00
26112;BME280;13829;48.990;8.346;2022-08-19T04:17:03;100043.63;;;20.72;100.00
26112;BME280;13829;48.990;8.346;2022-08-19T04:19:33;100043.72;;;20.68;100.00
26112;BME280;13829;48.990;8.346;2022-08-19T04:22:01;100040.03;;;20.73;100.00
26112;BME280;13829;48.990;8.346;2022-08-19T04:24:31;100040.03;;;20.73;100.00
26112;BME280;13829;48.990;8.346;2022-08-19T04:27:00;100041.78;;;20.74;100.00
26112;BME280;13829;48.990;8.346;2022-08-19T04:29:29;100038.88;;;20.78;100.00
26112;BME280;13829;48.990;8.346;2022-08-19T04:31:58;100030.94;;;20.77;100.00
26112;BME280;13829;48.990;8.346;2022-08-19T04:34:28;100028.34;;;20.75;100.00
26112;BME280;13829;48.990;8.346;2022-08-19T04:36:58;100031.31;;;20.67;100.00
26112;BME280;13829;48.990;8.346;2022-08-19T04:39:28;100034.00;;;20.67;100.00
26112;BME280;13829;48.990;8.346;2022-08-19T04:42:12;100028.69;;;20.66;100.00
26112;BME280;13829;48.990;8.346;2022-08-19T04:44:57;100036.78;;;20.64;100.00
26112;BME280;13829;48.990;8.346;2022-08-19T04:47:25;100042.00;;;20.67;100.00
26112;BME280;13829;48.990;8.346;2022-08-19T04:49:52;100038.38;;;20.68;100.00
26112;BME280;13829;48.990;8.346;2022-08-19T04:52:19;100040.13;;;20.69;100.00
26112;BME280;13829;48.990;8.346;2022-08-19T04:54:46;100037.28;;;20.74;100.00
26112;BME280;13829;48.990;8.346;2022-08-19T04:57:15;100050.31;;;20.82;100.00
26112;BME280;13829;48.990;8.346;2022-08-19T04:59:42;100055.66;;;20.82;100.00
26112;BME280;13829;48.990;8.346;2022-08-19T05:02:09;100056.31;;;20.87;100.00
26112;BME280;13829;48.990;8.346;2022-08-19T05:04:37;100056.22;;;20.90;100.00
26112;BME280;13829;48.990;8.346;2022-08-19T05:07:05;100067.50;;;20.97;100.00
26112;BME280;13829;48.990;8.346;2022-08-19T05:09:32;100054.13;;;20.97;100.00
26112;BME280;13829;48.990;8.346;2022-08-19T05:11:59;100052.97;;;21.02;100.00
26112;BME280;13829;48.990;8.346;2022-08-19T05:14:27;100056.31;;;21.08;100.00
26112;BME280;13829;48.990;8.346;2022-08-19T05:16:54;100056.94;;;21.14;100.00
26112;BME280;13829;48.990;8.346;2022-08-19T05:19:21;100061.47;;;21.12;100.00
26112;BME280;13829;48.990;8.346;2022-08-19T05:22:06;100071.81;;;21.20;100.00
26112;BME280;13829;48.990;8.346;2022-08-19T05:24:51;100069.28;;;21.17;100.00
26112;BME280;13829;48.990;8.346;2022-08-19T05:27:18;100072.56;;;21.24;100.00
26112;BME280;13829;48.990;8.346;2022-08-19T05:29:46;100079.31;;;21.32;100.00
26112;BME280;13829;48.990;8.346;2022-08-19T05:32:13;100087.16;;;21.35;100.00
26112;BME280;13829;48.990;8.346;2022-08-19T05:34:40;100087.06;;;21.39;100.00
26112;BME280;13829;48.990;8.346;2022-08-19T05:37:07;100096.53;;;21.46;100.00
26112;BME280;13829;48.990;8.346;2022-08-19T05:39:37;100096.41;;;21.49;100.00
26112;BME280;13829;48.990;8.346;2022-08-19T05:42:09;100102.41;;;21.54;100.00
26112;BME280;13829;48.990;8.346;2022-08-19T05:47:13;100107.97;;;21.70;100.00
26112;BME280;13829;48.990;8.346;2022-08-19T05:49:41;100117.50;;;21.76;100.00
26112;BME280;13829;48.990;8.346;2022-08-19T05:52:13;100116.13;;;21.86;100.00
26112;BME280;13829;48.990;8.346;2022-08-19T05:54:42;100115.78;;;21.94;100.00
26112;BME280;13829;48.990;8.346;2022-08-19T05:57:14;100122.28;;;21.88;100.00
26112;BME280;13829;48.990;8.346;2022-08-19T05:59:40;100131.25;;;21.87;100.00
26112;BME280;13829;48.990;8.346;2022-08-19T06:02:07;100128.59;;;21.87;100.00
26112;BME280;13829;48.990;8.346;2022-08-19T06:04:36;100135.22;;;21.78;100.00
26112;BME280;13829;48.990;8.346;2022-08-19T06:07:03;100130.03;;;21.75;100.00
26112;BME280;13829;48.990;8.346;2022-08-19T06:09:30;100131.16;;;21.70;100.00
26112;BME280;13829;48.990;8.346;2022-08-19T06:11:59;100128.56;;;21.68;100.00
26112;BME280;13829;48.990;8.346;2022-08-19T06:14:32;100131.03;;;21.73;100.00
26112;BME280;13829;48.990;8.346;2022-08-19T06:17:00;100128.63;;;21.66;100.00
26112;BME280;13829;48.990;8.346;2022-08-19T06:19:30;100128.75;;;21.63;100.00
26112;BME280;13829;48.990;8.346;2022-08-19T06:22:00;100133.25;;;21.63;100.00
26112;BME280;13829;48.990;8.346;2022-08-19T06:24:28;100127.06;;;21.62;100.00
26112;BME280;13829;48.990;8.346;2022-08-19T06:26:57;100127.47;;;21.72;100.00
26112;BME280;13829;48.990;8.346;2022-08-19T06:29:27;100128.22;;;21.76;100.00
26112;BME280;13829;48.990;8.346;2022-08-19T06:31:58;100128.22;;;21.76;100.00
26112;BME280;13829;48.990;8.346;2022-08-19T06:34:27;100134.66;;;21.72;100.00
26112;BME280;13829;48.990;8.346;2022-08-19T06:36:57;100140.66;;;21.77;100.00
26112;BME280;13829;48.990;8.346;2022-08-19T06:39:32;100141.41;;;21.80;100.00
26112;BME280;13829;48.990;8.346;2022-08-19T06:42:03;100151.81;;;21.87;100.00
26112;BME280;13829;48.990;8.346;2022-08-19T06:44:35;100154.25;;;21.91;100.00
26112;BME280;13829;48.990;8.346;2022-08-19T06:47:06;100147.84;;;21.95;100.00
26112;BME280;13829;48.990;8.346;2022-08-19T06:49:34;100147.63;;;22.00;100.00
26112;BME280;13829;48.990;8.346;2022-08-19T06:52:03;100148.78;;;22.13;99.13
26112;BME280;13829;48.990;8.346;2022-08-19T06:54:31;100145.44;;;22.27;98.14
26112;BME280;13829;48.990;8.346;2022-08-19T06:57:00;100147.28;;;22.46;97.01
26112;BME280;13829;48.990;8.346;2022-08-19T06:59:30;100142.09;;;22.60;97.04
26112;BME280;13829;48.990;8.346;2022-08-19T07:02:01;100149.94;;;22.65;94.02
26112;BME280;13829;48.990;8.346;2022-08-19T07:04:31;100149.53;;;22.73;91.50
26112;BME280;13829;48.990;8.346;2022-08-19T07:07:04;100159.31;;;22.74;90.53
26112;BME280;13829;48.990;8.346;2022-08-19T07:09:36;100157.72;;;22.70;91.22
26112;BME280;13829;48.990;8.346;2022-08-19T07:12:07;100163.72;;;22.75;89.60
26112;BME280;13829;48.990;8.346;2022-08-19T07:14:36;100159.97;;;22.79;89.42
26112;BME280;13829;48.990;8.346;2022-08-19T07:17:06;100156.72;;;22.90;89.39
26112;BME280;13829;48.990;8.346;2022-08-19T07:19:35;100162.31;;;23.03;89.09
26112;BME280;13829;48.990;8.346;2022-08-19T07:22:04;100156.56;;;23.10;87.83
26112;BME280;13829;48.990;8.346;2022-08-19T07:24:34;100155.25;;;23.19;86.79
26112;BME280;13829;48.990;8.346;2022-08-19T07:27:04;100153.38;;;23.39;87.76
26112;BME280;13829;48.990;8.346;2022-08-19T07:29:34;100155.75;;;23.45;86.23
26112;BME280;13829;48.990;8.346;2022-08-19T07:32:04;100159.66;;;23.55;85.75
26112;BME280;13829;48.990;8.346;2022-08-19T07:34:32;100149.38;;;23.64;84.67
26112;BME280;13829;48.990;8.346;2022-08-19T07:37:03;100147.25;;;23.70;84.83
26112;BME280;13829;48.990;8.346;2022-08-19T07:39:35;100140.94;;;23.87;82.83
26112;BME280;13829;48.990;8.346;2022-08-19T07:42:08;100142.38;;;23.94;82.30
26112;BME280;13829;48.990;8.346;2022-08-19T07:44:36;100145.59;;;24.17;82.27
26112;BME280;13829;48.990;8.346;2022-08-19T07:47:04;100141.88;;;24.20;80.26
26112;BME280;13829;48.990;8.346;2022-08-19T07:49:32;100147.25;;;24.20;79.93
26112;BME280;13829;48.990;8.346;2022-08-19T07:52:05;100155.56;;;24.15;79.68
26112;BME280;13829;48.990;8.346;2022-08-19T07:54:38;100154.94;;;24.10;79.58
26112;BME280;13829;48.990;8.346;2022-08-19T07:57:07;100156.19;;;24.04;79.66
26112;BME280;13829;48.990;8.346;2022-08-19T07:59:35;100152.09;;;23.97;80.07
26112;BME280;13829;48.990;8.346;2022-08-19T08:02:03;100153.13;;;23.94;80.77
26112;BME280;13829;48.990;8.346;2022-08-19T08:04:31;100155.81;;;23.94;81.47
26112;BME280;13829;48.990;8.346;2022-08-19T08:07:16;100158.50;;;23.94;81.23
26112;BME280;13829;48.990;8.346;2022-08-19T08:10:03;100159.53;;;23.92;81.17
26112;BME280;13829;48.990;8.346;2022-08-19T08:12:34;100155.16;;;23.89;79.79
26112;BME280;13829;48.990;8.346;2022-08-19T08:15:09;100142.81;;;24.03;79.99
26112;BME280;13829;48.990;8.346;2022-08-19T08:17:36;100150.38;;;24.12;79.13
26112;BME280;13829;48.990;8.346;2022-08-19T08:20:07;100155.38;;;24.34;79.82
26112;BME280;13829;48.990;8.346;2022-08-19T08:22:34;100155.31;;;24.52;77.70
26112;BME280;13829;48.990;8.346;2022-08-19T08:25:23;100160.75;;;24.82;77.03
26112;BME280;13829;48.990;8.346;2022-08-19T08:27:50;100159.59;;;25.02;76.97
26112;BME280;13829;48.990;8.346;2022-08-19T08:30:21;100155.50;;;25.26;75.11
26112;BME280;13829;48.990;8.346;2022-08-19T08:32:50;100161.72;;;25.42;72.86
26112;BME280;13829;48.990;8.346;2022-08-19T08:35:20;100161.94;;;25.53;73.17
26112;BME280;13829;48.990;8.346;2022-08-19T08:37:49;100160.38;;;25.49;72.22
26112;BME280;13829;48.990;8.346;2022-08-19T08:40:29;100154.03;;;25.65;71.63
26112;BME280;13829;48.990;8.346;2022-08-19T08:43:06;100161.06;;;25.67;70.33
26112;BME280;13829;48.990;8.346;2022-08-19T08:45:41;100160.97;;;25.69;70.68
26112;BME280;13829;48.990;8.346;2022-08-19T08:48:19;100169.34;;;25.79;71.17
26112;BME280;13829;48.990;8.346;2022-08-19T08:50:49;100159.66;;;25.91;67.50
26112;BME280;13829;48.990;8.346;2022-08-19T08:53:19;100157.25;;;26.15;67.46
26112;BME280;13829;48.990;8.346;2022-08-19T08:55:48;100153.44;;;26.32;68.15
26112;BME280;13829;48.990;8.346;2022-08-19T08:58:24;100156.13;;;26.46;66.83
26112;BME280;13829;48.990;8.346;2022-08-19T09:00:54;100152.72;;;26.84;66.82
26112;BME280;13829;48.990;8.346;2022-08-19T09:03:24;100155.56;;;26.96;63.28
26112;BME280;13829;48.990;8.346;2022-08-19T09:06:07;100154.78;;;27.34;62.57
26112;BME280;13829;48.990;8.346;2022-08-19T09:08:48;100152.94;;;27.47;60.97
26112;BME280;13829;48.990;8.346;2022-08-19T09:11:24;100155.34;;;27.39;60.34
26112;BME280;13829;48.990;8.346;2022-08-19T09:14:08;100152.06;;;27.21;62.31
26112;BME280;13829;48.990;8.346;2022-08-19T09:16:38;100157.66;;;27.31;63.18
26112;BME280;13829;48.990;8.346;2022-08-19T09:19:07;100157.66;;;27.31;62.31
26112;BME280;13829;48.990;8.346;2022-08-19T09:21:37;100157.66;;;27.31;62.90
26112;BME280;13829;48.990;8.346;2022-08-19T09:24:05;100165.69;;;27.32;62.00
26112;BME280;13829;48.990;8.346;2022-08-19T09:26:33;100166.28;;;27.10;61.14
26112;BME280;13829;48.990;8.346;2022-08-19T09:29:01;100158.03;;;26.99;62.26
26112;BME280;13829;48.990;8.346;2022-08-19T09:31:31;100166.44;;;26.94;63.09
26112;BME280;13829;48.990;8.346;2022-08-19T09:33:59;100155.28;;;26.73;63.22
26112;BME280;13829;48.990;8.346;2022-08-19T09:36:31;100159.56;;;26.48;62.81
26112;BME280;13829;48.990;8.346;2022-08-19T09:38:59;100150.47;;;26.36;63.53
26112;BME280;13829;48.990;8.346;2022-08-19T09:41:27;100151.78;;;26.44;61.89
26112;BME280;13829;48.990;8.346;2022-08-19T09:43:56;100160.00;;;26.55;61.52
26112;BME280;13829;48.990;8.346;2022-08-19T09:46:26;100154.66;;;26.82;62.13
26112;BME280;13829;48.990;8.346;2022-08-19T09:48:54;100158.47;;;26.93;60.48
26112;BME280;13829;48.990;8.346;2022-08-19T09:51:25;100144.00;;;26.94;61.18
26112;BME280;13829;48.990;8.346;2022-08-19T09:53:59;100145.22;;;27.15;61.06
26112;BME280;13829;48.990;8.346;2022-08-19T09:56:27;100146.94;;;27.44;59.89
26112;BME280;13829;48.990;8.346;2022-08-19T09:58:58;100143.78;;;27.50;59.73
26112;BME280;13829;48.990;8.346;2022-08-19T10:01:27;100148.09;;;27.40;60.10
26112;BME280;13829;48.990;8.346;2022-08-19T10:03:57;100157.72;;;27.57;60.24
26112;BME280;13829;48.990;8.346;2022-08-19T10:06:27;100159.00;;;27.64;59.66
26112;BME280;13829;48.990;8.346;2022-08-19T10:08:55;100156.44;;;27.49;58.74
26112;BME280;13829;48.990;8.346;2022-08-19T10:11:22;100162.47;;;27.53;58.58
26112;BME280;13829;48.990;8.346;2022-08-19T10:13:49;100158.81;;;27.41;56.53
26112;BME280;13829;48.990;8.346;2022-08-19T10:16:21;100151.78;;;27.52;59.69
26112;BME280;13829;48.990;8.346;2022-08-19T10:18:50;100159.66;;;27.55;60.74
26112;BME280;13829;48.990;8.346;2022-08-19T10:21:21;100160.63;;;27.41;56.14
26112;BME280;13829;48.990;8.346;2022-08-19T10:23:56;100154.78;;;27.34;53.56
26112;BME280;13829;48.990;8.346;2022-08-19T10:26:27;100155.88;;;27.44;53.57
26112;BME280;13829;48.990;8.346;2022-08-19T10:28:56;100158.59;;;27.44;54.12
26112;BME280;13829;48.990;8.346;2022-08-19T10:31:29;100155.34;;;27.39;52.76
26112;BME280;13829;48.990;8.346;2022-08-19T10:33:58;100153.19;;;27.44;52.90
26112;BME280;13829;48.990;8.346;2022-08-19T10:36:28;100152.09;;;27.60;51.47
26112;BME280;13829;48.990;8.346;2022-08-19T10:38:58;100146.38;;;27.77;51.80
26112;BME280;13829;48.990;8.346;2022-08-19T10:41:30;100149.16;;;27.50;50.36
26112;BME280;13829;48.990;8.346;2022-08-19T10:44:01;100148.97;;;27.53;50.47
26112;BME280;13829;48.990;8.346;2022-08-19T10:46:31;100141.06;;;27.50;50.20
26112;BME280;13829;48.990;8.346;2022-08-19T10:49:00;100139.78;;;27.43;50.20
26112;BME280;13829;48.990;8.346;2022-08-19T10:51:27;100132.22;;;27.61;52.94
26112;BME280;13829;48.990;8.346;2022-08-19T10:54:11;100137.06;;;27.69;51.00
26112;BME280;13829;48.990;8.346;2022-08-19T10:56:39;100135.03;;;27.72;49.91
26112;BME280;13829;48.990;8.346;2022-08-19T10:59:19;100122.03;;;27.90;50.85
26112;BME280;13829;48.990;8.346;2022-08-19T11:01:50;100123.19;;;28.12;50.70
26112;BME280;13829;48.990;8.346;2022-08-19T11:04:18;100116.56;;;28.29;50.02
26112;BME280;13829;48.990;8.346;2022-08-19T11:06:47;100112.63;;;28.09;49.95
26112;BME280;13829;48.990;8.346;2022-08-19T11:09:15;100119.00;;;27.95;49.36
26112;BME280;13829;48.990;8.346;2022-08-19T11:11:44;100115.13;;;27.86;49.71
26112;BME280;13829;48.990;8.346;2022-08-19T11:14:15;100108.53;;;27.77;51.79
26112;BME280;13829;48.990;8.346;2022-08-19T11:16:43;100108.22;;;27.69;51.83
26112;BME280;13829;48.990;8.346;2022-08-19T11:19:12;100113.31;;;27.48;51.09
26112;BME280;13829;48.990;8.346;2022-08-19T11:21:43;100122.28;;;27.48;52.48
26112;BME280;13829;48.990;8.346;2022-08-19T11:24:14;100114.94;;;27.50;52.12
26112;BME280;13829;48.990;8.346;2022-08-19T11:26:43;100113.19;;;27.75;51.73
26112;BME280;13829;48.990;8.346;2022-08-19T11:29:12;100105.16;;;27.87;51.05
26112;BME280;13829;48.990;8.346;2022-08-19T11:31:42;100104.44;;;27.85;51.13
26112;BME280;13829;48.990;8.346;2022-08-19T11:34:16;100096.66;;;27.67;51.28
26112;BME280;13829;48.990;8.346;2022-08-19T11:36:46;100094.63;;;27.58;52.00
26112;BME280;13829;48.990;8.346;2022-08-19T11:39:21;100105.00;;;27.51;51.40
26112;BME280;13829;48.990;8.346;2022-08-19T11:41:48;100097.84;;;27.24;51.44
26112;BME280;13829;48.990;8.346;2022-08-19T11:44:15;100090.72;;;27.23;52.72
26112;BME280;13829;48.990;8.346;2022-08-19T11:46:44;100094.59;;;27.32;53.33
26112;BME280;13829;48.990;8.346;2022-08-19T11:49:14;100092.03;;;27.43;51.20
26112;BME280;13829;48.990;8.346;2022-08-19T11:51:42;100094.41;;;27.48;51.45
26112;BME280;13829;48.990;8.346;2022-08-19T11:54:11;100100.25;;;27.42;50.76
26112;BME280;13829;48.990;8.346;2022-08-19T11:56:39;100090.72;;;27.23;52.12
26112;BME280;13829;48.990;8.346;2022-08-19T11:59:07;100093.09;;;27.15;51.55
26112;BME280;13829;48.990;8.346;2022-08-19T12:01:34;100103.66;;;27.05;51.43
26112;BME280;13829;48.990;8.346;2022-08-19T12:04:01;100101.06;;;27.04;52.66
26112;BME280;13829;48.990;8.346;2022-08-19T12:06:32;100087.34;;;27.19;51.90
26112;BME280;13829;48.990;8.346;2022-08-19T12:09:04;100101.72;;;27.33;50.53
26112;BME280;13829;48.990;8.346;2022-08-19T12:11:32;100100.47;;;27.52;49.96
26112;BME280;13829;48.990;8.346;2022-08-19T12:13:59;100097.53;;;27.55;51.64
26112;BME280;13829;48.990;8.346;2022-08-19T12:16:29;100111.91;;;27.68;52.69
26112;BME280;13829;48.990;8.346;2022-08-19T12:18:57;100114.91;;;27.76;51.70
26112;BME280;13829;48.990;8.346;2022-08-19T12:21:33;100106.81;;;27.76;51.52
26112;BME280;13829;48.990;8.346;2022-08-19T12:24:03;100106.72;;;27.65;51.04
26112;BME280;13829;48.990;8.346;2022-08-19T12:26:31;100102.06;;;27.67;51.04
26112;BME280;13829;48.990;8.346;2022-08-19T12:28:58;100106.81;;;27.63;52.31
26112;BME280;13829;48.990;8.346;2022-08-19T12:31:26;100109.28;;;27.66;51.72
26112;BME280;13829;48.990;8.346;2022-08-19T12:33:53;100103.28;;;27.63;51.77
26112;BME280;13829;48.990;8.346;2022-08-19T12:36:20;100103.91;;;27.54;51.64
26112;BME280;13829;48.990;8.346;2022-08-19T12:38:51;100099.38;;;27.54;50.58
26112;BME280;13829;48.990;8.346;2022-08-19T12:41:19;100103.81;;;27.42;50.21
26112;BME280;13829;48.990;8.346;2022-08-19T12:43:47;100102.63;;;27.46;51.12
26112;BME280;13829;48.990;8.346;2022-08-19T12:46:15;100098.94;;;27.47;51.42
26112;BME280;13829;48.990;8.346;2022-08-19T12:48:42;100100.34;;;27.53;51.34
26112;BME280;13829;48.990;8.346;2022-08-19T12:51:13;100101.75;;;27.59;50.17
26112;BME280;13829;48.990;8.346;2022-08-19T12:53:41;100100.13;;;27.56;48.88
26112;BME280;13829;48.990;8.346;2022-08-19T12:56:11;100094.00;;;27.54;46.50
26112;BME280;13829;48.990;8.346;2022-08-19T12:58:41;100096.34;;;27.59;46.56
26112;BME280;13829;48.990;8.346;2022-08-19T13:01:10;100094.50;;;27.72;47.94